createdAt,value
2017-06-23T00:00:37.817Z,0
2017-06-23T00:01:37.840Z,0
2017-06-23T00:02:37.818Z,0
2017-06-23T00:03:52.461Z,0
2017-06-23T00:04:37.871Z,0
2017-06-23T00:05:52.513Z,0
2017-06-23T00:07:37.942Z,0
2017-06-23T00:09:37.999Z,0
2017-06-23T00:10:38.024Z,0
2017-06-23T00:11:38.046Z,0
2017-06-23T00:12:52.692Z,0
2017-06-23T00:13:37.841Z,0
2017-06-23T00:14:38.127Z,0
2017-06-23T00:15:52.462Z,0
2017-06-23T00:16:38.174Z,0
2017-06-23T00:18:52.539Z,0
2017-06-23T00:19:38.256Z,0
2017-06-23T00:21:38.301Z,0
2017-06-23T00:22:38.021Z,0
2017-06-23T00:23:38.352Z,0
2017-06-23T00:24:38.383Z,0
2017-06-23T00:25:38.404Z,0
2017-06-23T00:26:38.427Z,0
2017-06-23T00:27:38.454Z,0
2017-06-23T00:28:38.479Z,0
2017-06-23T00:29:38.518Z,0
2017-06-23T00:30:38.529Z,0
2017-06-23T00:31:53.173Z,0
2017-06-23T00:32:38.581Z,0
2017-06-23T00:33:38.606Z,0
2017-06-23T00:34:53.250Z,0
2017-06-23T00:35:38.358Z,0
2017-06-23T00:36:38.378Z,0
2017-06-23T00:37:53.327Z,0
2017-06-23T00:39:38.762Z,0
2017-06-23T00:40:38.834Z,0
2017-06-23T00:41:38.818Z,0
2017-06-23T00:42:38.834Z,0
2017-06-23T00:43:38.860Z,0
2017-06-23T00:44:38.896Z,0
2017-06-23T00:45:38.910Z,0
2017-06-23T00:46:38.939Z,0
2017-06-23T00:47:38.959Z,0
2017-06-23T00:48:53.605Z,0
2017-06-23T00:49:39.017Z,0
2017-06-23T00:50:39.046Z,0
2017-06-23T00:52:39.090Z,0
2017-06-23T00:53:53.734Z,0
2017-06-23T00:54:39.140Z,0
2017-06-23T00:55:38.862Z,0
2017-06-23T00:56:39.193Z,0
2017-06-23T00:57:39.215Z,0
2017-06-23T00:58:39.240Z,0
2017-06-23T00:59:39.269Z,0
2017-06-23T01:00:39.394Z,0
2017-06-23T01:01:39.318Z,0
2017-06-23T01:02:39.343Z,0
2017-06-23T01:03:39.367Z,0
2017-06-23T01:04:54.010Z,0
2017-06-23T01:05:39.420Z,0
2017-06-23T01:06:39.144Z,0
2017-06-23T01:07:39.468Z,0
2017-06-23T01:08:39.503Z,0
2017-06-23T01:09:54.142Z,0
2017-06-23T01:10:39.548Z,0
2017-06-23T01:11:39.574Z,0
2017-06-23T01:12:39.599Z,0
2017-06-23T01:13:39.318Z,0
2017-06-23T01:14:39.344Z,0
2017-06-23T01:15:39.370Z,0
2017-06-23T01:16:39.697Z,0
2017-06-23T01:17:39.423Z,0
2017-06-23T01:18:39.746Z,0
2017-06-23T01:19:54.088Z,0
2017-06-23T01:20:54.420Z,0
2017-06-23T01:23:39.573Z,0
2017-06-23T01:24:39.905Z,0
2017-06-23T01:25:54.544Z,0
2017-06-23T01:26:39.952Z,0
2017-06-23T01:27:39.982Z,0
2017-06-23T01:29:39.724Z,0
2017-06-23T01:30:40.053Z,0
2017-06-23T01:31:40.080Z,0
2017-06-23T01:32:40.105Z,0
2017-06-23T01:33:40.130Z,0
2017-06-23T01:34:40.155Z,0
2017-06-23T01:35:40.183Z,0
2017-06-23T01:36:40.202Z,0
2017-06-23T01:38:40.260Z,0
2017-06-23T01:39:40.290Z,0
2017-06-23T01:40:54.927Z,0
2017-06-23T01:41:40.335Z,0
2017-06-23T01:43:40.384Z,0
2017-06-23T01:44:39.803Z,0
2017-06-23T01:45:40.130Z,0
2017-06-23T01:46:40.154Z,0
2017-06-23T01:47:40.180Z,0
2017-06-23T01:48:40.508Z,0
2017-06-23T01:49:40.532Z,0
2017-06-23T01:50:40.559Z,0
2017-06-23T01:51:40.585Z,0
2017-06-23T01:52:40.609Z,0
2017-06-23T01:53:40.633Z,0
2017-06-23T01:54:55.276Z,0
2017-06-23T01:55:40.685Z,0
2017-06-23T01:56:40.710Z,0
2017-06-23T01:57:40.732Z,0
2017-06-23T01:58:40.458Z,0
2017-06-23T01:59:40.786Z,0
2017-06-23T02:00:40.818Z,0
2017-06-23T02:01:40.851Z,0
2017-06-23T02:02:40.939Z,0
2017-06-23T02:03:40.886Z,0
2017-06-23T02:04:40.913Z,0
2017-06-23T02:05:40.935Z,0
2017-06-23T02:06:40.962Z,0
2017-06-23T02:07:55.603Z,0
2017-06-23T02:08:41.015Z,0
2017-06-23T02:10:41.062Z,4
2017-06-23T02:11:41.086Z,4
2017-06-23T02:12:55.728Z,4
2017-06-23T02:13:41.157Z,8
2017-06-23T02:14:40.870Z,4
2017-06-23T02:15:41.186Z,8
2017-06-23T02:16:41.252Z,8
2017-06-23T02:17:41.238Z,8
2017-06-23T02:18:41.265Z,12
2017-06-23T02:19:41.290Z,8
2017-06-23T02:20:55.932Z,8
2017-06-23T02:21:55.956Z,8
2017-06-23T02:22:41.363Z,8
2017-06-23T02:23:41.385Z,8
2017-06-23T02:24:56.030Z,8
2017-06-23T02:25:56.056Z,12
2017-06-23T02:26:41.464Z,12
2017-06-23T02:27:41.487Z,16
2017-06-23T02:28:56.130Z,16
2017-06-23T02:29:41.237Z,20
2017-06-23T02:30:41.288Z,24
2017-06-23T02:31:41.591Z,32
2017-06-23T02:32:41.617Z,40
2017-06-23T02:33:41.641Z,40
2017-06-23T02:34:41.664Z,44
2017-06-23T02:35:41.688Z,44
2017-06-23T02:37:41.736Z,48
2017-06-23T02:38:41.769Z,56
2017-06-23T02:39:41.793Z,56
2017-06-23T02:41:56.456Z,52
2017-06-23T02:42:41.865Z,52
2017-06-23T02:43:41.899Z,56
2017-06-23T02:44:56.532Z,52
2017-06-23T02:45:41.646Z,52
2017-06-23T02:46:41.663Z,48
2017-06-23T02:47:41.990Z,48
2017-06-23T02:48:42.014Z,36
2017-06-23T02:49:42.038Z,28
2017-06-23T02:50:42.066Z,24
2017-06-23T02:51:41.786Z,28
2017-06-23T02:52:42.116Z,24
2017-06-23T02:53:42.146Z,28
2017-06-23T02:54:56.783Z,24
2017-06-23T02:55:42.189Z,24
2017-06-23T02:56:56.832Z,20
2017-06-23T02:59:56.907Z,20
2017-06-23T03:00:56.934Z,20
2017-06-23T03:01:42.045Z,24
2017-06-23T03:02:42.367Z,24
2017-06-23T03:03:42.391Z,24
2017-06-23T03:04:42.714Z,28
2017-06-23T03:05:42.441Z,36
2017-06-23T03:06:42.160Z,44
2017-06-23T03:07:42.490Z,60
2017-06-23T03:08:42.514Z,80
2017-06-23T03:09:42.540Z,104
2017-06-23T03:10:42.562Z,144
2017-06-23T03:11:57.208Z,180
2017-06-23T03:12:42.615Z,204
2017-06-23T03:14:42.664Z,152
2017-06-23T03:15:57.309Z,176
2017-06-23T03:16:42.413Z,208
2017-06-23T03:18:42.767Z,248
2017-06-23T03:19:42.795Z,260
2017-06-23T03:20:42.511Z,260
2017-06-23T03:21:42.845Z,276
2017-06-23T03:22:57.487Z,264
2017-06-23T03:23:42.894Z,272
2017-06-23T03:24:42.914Z,312
2017-06-23T03:25:42.941Z,328
2017-06-23T03:27:42.992Z,288
2017-06-23T03:28:43.021Z,288
2017-06-23T03:29:43.042Z,292
2017-06-23T03:30:43.065Z,284
2017-06-23T03:31:42.787Z,312
2017-06-23T03:33:57.767Z,308
2017-06-23T03:36:43.219Z,332
2017-06-23T03:37:43.242Z,272
2017-06-23T03:39:57.927Z,552
2017-06-23T03:40:43.316Z,464
2017-06-23T03:41:43.411Z,492
2017-06-23T03:42:43.384Z,428
2017-06-23T03:43:43.409Z,508
2017-06-23T03:44:43.434Z,656
2017-06-23T03:45:58.060Z,624
2017-06-23T03:46:43.469Z,720
2017-06-23T03:47:58.109Z,1052
2017-06-23T03:50:43.578Z,1308
2017-06-23T03:51:43.601Z,1540
2017-06-23T03:52:43.616Z,1524
2017-06-23T03:53:43.644Z,1324
2017-06-23T03:54:43.681Z,1452
2017-06-23T03:55:43.694Z,1252
2017-06-23T03:56:43.718Z,1216
2017-06-23T03:57:43.742Z,1376
2017-06-23T03:58:43.770Z,1112
2017-06-23T03:59:43.795Z,1896
2017-06-23T04:00:58.437Z,1364
2017-06-23T04:02:43.867Z,1552
2017-06-23T04:03:58.510Z,1520
2017-06-23T04:04:43.919Z,1700
2017-06-23T04:05:43.950Z,2556
2017-06-23T04:06:43.974Z,3172
2017-06-23T04:07:43.993Z,4040
2017-06-23T04:08:43.716Z,4240
2017-06-23T04:09:43.742Z,2936
2017-06-23T04:10:44.071Z,3816
2017-06-23T04:11:44.099Z,4064
2017-06-23T04:12:44.121Z,5236
2017-06-23T04:13:44.152Z,6104
2017-06-23T04:14:44.172Z,8648
2017-06-23T04:15:44.201Z,5652
2017-06-23T04:17:44.254Z,5616
2017-06-23T04:18:44.272Z,5544
2017-06-23T04:19:58.917Z,10940
2017-06-23T04:20:44.324Z,8608
2017-06-23T04:21:44.353Z,5344
2017-06-23T04:22:44.375Z,3188
2017-06-23T04:23:44.401Z,3204
2017-06-23T04:24:44.429Z,4084
2017-06-23T04:25:44.455Z,3840
2017-06-23T04:26:44.479Z,5396
2017-06-23T04:27:44.506Z,3360
2017-06-23T04:28:44.627Z,4876
2017-06-23T04:29:44.557Z,7724
2017-06-23T04:30:44.579Z,4768
2017-06-23T04:31:44.608Z,4984
2017-06-23T04:32:44.632Z,3552
2017-06-23T04:33:44.658Z,2356
2017-06-23T04:34:44.685Z,2104
2017-06-23T04:35:59.330Z,2548
2017-06-23T04:36:44.434Z,2376
2017-06-23T04:38:44.794Z,2244
2017-06-23T04:39:44.812Z,2308
2017-06-23T04:40:44.837Z,3572
2017-06-23T04:41:44.864Z,4984
2017-06-23T04:42:44.894Z,6336
2017-06-23T04:43:44.915Z,7760
2017-06-23T04:44:44.942Z,7392
2017-06-23T04:45:59.585Z,6620
2017-06-23T04:46:59.613Z,5932
2017-06-23T04:47:45.018Z,5124
2017-06-23T04:49:45.071Z,4948
2017-06-23T04:50:59.461Z,3492
2017-06-23T04:52:45.152Z,2612
2017-06-23T04:53:45.174Z,1720
2017-06-23T04:54:59.825Z,1304
2017-06-23T04:55:44.926Z,1292
2017-06-23T04:56:45.307Z,1376
2017-06-23T04:57:45.276Z,1104
2017-06-23T04:58:45.305Z,1220
2017-06-23T04:59:45.337Z,1252
2017-06-23T05:00:45.361Z,1368
2017-06-23T05:01:59.999Z,1352
2017-06-23T05:02:45.410Z,1276
2017-06-23T05:03:45.433Z,1192
2017-06-23T05:04:45.461Z,1292
2017-06-23T05:05:45.487Z,1620
2017-06-23T05:06:45.512Z,1380
2017-06-23T05:07:45.545Z,1400
2017-06-23T05:08:45.562Z,1664
2017-06-23T05:09:45.589Z,1736
2017-06-23T05:10:45.614Z,1508
2017-06-23T05:11:45.637Z,1276
2017-06-23T05:12:45.666Z,1296
2017-06-23T05:13:45.703Z,1020
2017-06-23T05:14:45.714Z,1040
2017-06-23T05:16:00.409Z,1080
2017-06-23T05:17:00.386Z,1044
2017-06-23T05:17:45.842Z,920
2017-06-23T05:19:45.846Z,1060
2017-06-23T05:20:45.869Z,872
2017-06-23T05:23:00.541Z,1048
2017-06-23T05:23:45.646Z,1040
2017-06-23T05:26:46.022Z,1412
2017-06-23T05:27:46.048Z,1100
2017-06-23T05:28:46.074Z,804
2017-06-23T05:29:46.097Z,1004
2017-06-23T05:30:46.175Z,1136
2017-06-23T05:31:46.151Z,1052
2017-06-23T05:32:46.173Z,684
2017-06-23T05:33:46.212Z,628
2017-06-23T05:35:46.255Z,908
2017-06-23T05:37:46.301Z,852
2017-06-23T05:39:00.945Z,856
2017-06-23T05:39:46.353Z,660
2017-06-23T05:40:46.385Z,536
2017-06-23T05:42:46.431Z,748
2017-06-23T05:43:46.455Z,632
2017-06-23T05:44:46.480Z,660
2017-06-23T05:45:46.517Z,612
2017-06-23T05:47:01.152Z,708
2017-06-23T05:47:46.562Z,784
2017-06-23T05:48:46.279Z,904
2017-06-23T05:49:46.309Z,744
2017-06-23T05:50:46.329Z,588
2017-06-23T05:52:01.278Z,660
2017-06-23T05:53:01.301Z,612
2017-06-23T05:53:46.709Z,544
2017-06-23T05:55:01.354Z,880
2017-06-23T05:56:46.485Z,600
2017-06-23T05:57:46.812Z,428
2017-06-23T05:58:46.535Z,436
2017-06-23T05:59:46.564Z,468
2017-06-23T06:00:46.888Z,452
2017-06-23T06:01:46.618Z,400
2017-06-23T06:02:46.638Z,492
2017-06-23T06:04:01.583Z,492
2017-06-23T06:04:46.686Z,432
2017-06-23T06:06:46.736Z,524
2017-06-23T06:07:47.062Z,624
2017-06-23T06:11:01.457Z,1440
2017-06-23T06:11:47.165Z,1684
2017-06-23T06:12:47.192Z,1588
2017-06-23T06:13:47.216Z,1812
2017-06-23T06:14:47.244Z,2844
2017-06-23T06:15:47.268Z,2956
2017-06-23T06:16:47.344Z,3044
2017-06-23T06:17:47.317Z,3104
2017-06-23T06:18:47.342Z,2968
2017-06-23T06:20:01.988Z,2604
2017-06-23T06:20:47.393Z,2580
2017-06-23T06:22:02.038Z,2708
2017-06-23T06:22:47.141Z,2700
2017-06-23T06:23:47.521Z,2420
2017-06-23T06:24:47.503Z,2188
2017-06-23T06:26:02.141Z,1988
2017-06-23T06:26:47.575Z,1940
2017-06-23T06:27:47.620Z,1964
2017-06-23T06:28:47.343Z,2100
2017-06-23T06:29:47.625Z,2040
2017-06-23T06:30:47.850Z,1900
2017-06-23T06:31:47.066Z,2096
2017-06-23T06:32:47.698Z,2240
2017-06-23T06:33:47.726Z,2064
2017-06-23T06:34:47.450Z,2268
2017-06-23T06:35:47.775Z,2232
2017-06-23T06:37:02.115Z,2564
2017-06-23T06:38:47.850Z,2768
2017-06-23T06:39:47.624Z,2724
2017-06-23T06:40:47.955Z,3008
2017-06-23T06:41:47.928Z,2816
2017-06-23T06:44:48.005Z,2452
2017-06-23T06:45:48.330Z,2280
2017-06-23T06:46:47.749Z,2748
2017-06-23T06:47:48.105Z,3084
2017-06-23T06:48:48.106Z,2936
2017-06-23T06:49:48.135Z,2704
2017-06-23T06:50:48.259Z,2284
2017-06-23T06:51:48.184Z,2684
2017-06-23T06:53:02.825Z,2484
2017-06-23T06:53:48.285Z,2672
2017-06-23T06:55:48.334Z,2480
2017-06-23T06:56:48.311Z,2564
2017-06-23T06:58:02.954Z,3004
2017-06-23T06:58:48.367Z,2560
2017-06-23T06:59:48.440Z,2384
2017-06-23T07:01:02.878Z,2172
2017-06-23T07:01:48.151Z,1704
2017-06-23T07:02:48.161Z,1344
2017-06-23T07:03:48.495Z,1352
2017-06-23T07:04:48.513Z,1536
2017-06-23T07:05:48.541Z,1288
2017-06-23T07:06:48.565Z,1568
2017-06-23T07:07:48.597Z,1684
2017-06-23T07:08:48.617Z,1708
2017-06-23T07:09:48.704Z,1700
2017-06-23T07:10:48.670Z,1972
2017-06-23T07:11:48.087Z,1968
2017-06-23T07:12:48.724Z,2056
2017-06-23T07:14:03.364Z,1948
2017-06-23T07:15:48.796Z,1612
2017-06-23T07:16:48.823Z,2428
2017-06-23T07:17:48.847Z,2656
2017-06-23T07:18:48.871Z,2888
2017-06-23T07:19:48.898Z,3028
2017-06-23T07:20:48.619Z,2712
2017-06-23T07:22:03.568Z,3408
2017-06-23T07:23:03.593Z,3208
2017-06-23T07:23:49.004Z,3640
2017-06-23T07:24:49.027Z,4400
2017-06-23T07:26:49.078Z,4988
2017-06-23T07:27:49.104Z,4956
2017-06-23T07:30:03.466Z,6140
2017-06-23T07:30:49.178Z,6060
2017-06-23T07:32:48.929Z,4420
2017-06-23T07:33:49.254Z,4536
2017-06-23T07:34:48.977Z,4752
2017-06-23T07:35:49.314Z,4376
2017-06-23T07:36:49.380Z,3736
2017-06-23T07:37:49.054Z,3980
2017-06-23T07:38:49.382Z,4436
2017-06-23T07:39:49.411Z,4648
2017-06-23T07:40:48.827Z,5208
2017-06-23T07:41:49.459Z,5360
2017-06-23T07:42:48.576Z,4080
2017-06-23T07:43:49.206Z,3964
2017-06-23T07:44:48.930Z,2840
2017-06-23T07:46:04.181Z,1756
2017-06-23T07:46:49.336Z,1496
2017-06-23T07:47:49.310Z,1568
2017-06-23T07:48:49.639Z,1664
2017-06-23T07:49:49.060Z,2156
2017-06-23T07:50:49.689Z,3180
2017-06-23T07:51:49.716Z,4080
2017-06-23T07:52:49.743Z,4864
2017-06-23T07:53:49.462Z,5540
2017-06-23T07:54:49.793Z,5772
2017-06-23T07:55:49.518Z,6384
2017-06-23T07:56:49.845Z,7784
2017-06-23T07:57:49.568Z,17152
2017-06-23T07:59:04.517Z,55744
2017-06-23T07:59:49.313Z,39232
2017-06-23T08:01:04.366Z,24992
2017-06-23T08:02:50.002Z,26176
2017-06-23T08:03:50.032Z,19296
2017-06-23T08:04:49.757Z,15044
2017-06-23T08:05:50.081Z,39360
2017-06-23T08:06:49.808Z,17600
2017-06-23T08:08:04.757Z,9472
2017-06-23T08:08:50.164Z,11328
2017-06-23T08:09:50.189Z,9800
2017-06-23T08:10:50.265Z,7800
2017-06-23T08:11:50.244Z,8568
2017-06-23T08:12:50.270Z,8120
2017-06-23T08:14:04.916Z,11504
2017-06-23T08:14:50.325Z,13232
2017-06-23T08:15:50.351Z,27680
2017-06-23T08:17:50.455Z,29248
2017-06-23T08:19:50.470Z,12488
2017-06-23T08:20:50.485Z,25248
2017-06-23T08:21:50.515Z,18912
2017-06-23T08:22:50.543Z,27040
2017-06-23T08:23:50.568Z,13000
2017-06-23T08:24:50.595Z,16948
2017-06-23T08:25:50.625Z,18688
2017-06-23T08:26:50.672Z,22432
2017-06-23T08:28:05.298Z,27936
2017-06-23T08:29:05.326Z,17904
2017-06-23T08:30:50.765Z,24896
2017-06-23T08:33:05.440Z,25536
2017-06-23T08:33:50.546Z,24928
2017-06-23T08:34:50.274Z,18688
2017-06-23T08:35:50.909Z,23328
2017-06-23T08:36:50.990Z,25248
2017-06-23T08:37:50.971Z,25984
2017-06-23T08:38:51.001Z,24032
2017-06-23T08:39:51.077Z,23392
2017-06-23T08:40:51.115Z,23296
2017-06-23T08:42:05.708Z,24512
2017-06-23T08:42:50.815Z,23584
2017-06-23T08:43:51.155Z,19392
2017-06-23T08:45:51.211Z,14780
2017-06-23T08:46:51.243Z,13348
2017-06-23T08:47:51.273Z,13084
2017-06-23T08:49:05.927Z,11572
2017-06-23T08:49:51.333Z,11100
2017-06-23T08:50:51.364Z,10868
2017-06-23T08:51:51.400Z,10548
2017-06-23T08:52:51.423Z,10244
2017-06-23T08:53:51.149Z,10600
2017-06-23T08:54:51.485Z,12004
2017-06-23T08:56:06.136Z,13024
2017-06-23T08:56:51.568Z,13508
2017-06-23T08:57:51.574Z,14064
2017-06-23T08:58:51.655Z,15500
2017-06-23T08:59:51.631Z,17184
2017-06-23T09:00:51.865Z,17696
2017-06-23T09:02:06.310Z,18496
2017-06-23T09:02:51.721Z,17152
2017-06-23T09:03:51.444Z,15412
2017-06-23T09:05:06.396Z,13928
2017-06-23T09:05:51.812Z,13632
2017-06-23T09:06:51.835Z,13316
2017-06-23T09:07:51.867Z,14652
2017-06-23T09:08:51.898Z,14460
2017-06-23T09:09:51.928Z,13544
2017-06-23T09:10:51.651Z,14168
2017-06-23T09:11:51.381Z,15620
2017-06-23T09:12:52.010Z,16244
2017-06-23T09:13:52.045Z,15600
2017-06-23T09:15:06.689Z,15472
2017-06-23T09:16:06.718Z,15428
2017-06-23T09:16:52.128Z,15072
2017-06-23T09:17:52.160Z,14092
2017-06-23T09:18:51.884Z,14336
2017-06-23T09:21:06.872Z,13720
2017-06-23T09:21:52.277Z,13532
2017-06-23T09:22:52.305Z,13120
2017-06-23T09:23:52.407Z,12360
2017-06-23T09:24:52.359Z,12420
2017-06-23T09:25:52.391Z,12120
2017-06-23T09:26:52.419Z,11100
2017-06-23T09:28:07.116Z,11460
2017-06-23T09:28:52.502Z,11732
2017-06-23T09:29:52.504Z,12216
2017-06-23T09:31:07.153Z,12416
2017-06-23T09:31:52.563Z,12216
2017-06-23T09:32:52.647Z,11584
2017-06-23T09:33:52.324Z,11428
2017-06-23T09:34:52.044Z,11324
2017-06-23T09:36:07.298Z,10940
2017-06-23T09:37:52.433Z,11040
2017-06-23T09:38:52.766Z,11164
2017-06-23T09:39:52.843Z,11308
2017-06-23T09:40:52.820Z,11256
2017-06-23T09:41:52.545Z,11276
2017-06-23T09:42:52.879Z,12112
2017-06-23T09:43:52.910Z,12140
2017-06-23T09:44:52.939Z,12820
2017-06-23T09:45:52.965Z,13368
2017-06-23T09:48:53.052Z,14836
2017-06-23T09:50:53.111Z,13936
2017-06-23T09:51:53.138Z,12820
2017-06-23T09:53:53.202Z,12084
2017-06-23T09:54:53.228Z,11588
2017-06-23T09:55:52.951Z,10460
2017-06-23T09:56:53.292Z,9116
2017-06-23T09:58:07.933Z,7152
2017-06-23T09:58:53.341Z,6588
2017-06-23T09:59:53.370Z,6928
2017-06-23T10:00:53.551Z,7956
2017-06-23T10:01:53.124Z,10132
2017-06-23T10:03:07.773Z,9940
2017-06-23T10:03:53.489Z,9572
2017-06-23T10:04:53.208Z,10096
2017-06-23T10:05:53.541Z,10236
2017-06-23T10:08:08.215Z,9708
2017-06-23T10:08:53.628Z,9464
2017-06-23T10:09:53.655Z,9584
2017-06-23T10:10:53.684Z,8740
2017-06-23T10:11:53.712Z,8532
2017-06-23T10:12:53.742Z,9524
2017-06-23T10:13:53.793Z,10284
2017-06-23T10:14:53.797Z,10188
2017-06-23T10:15:53.825Z,8360
2017-06-23T10:16:53.854Z,5856
2017-06-23T10:18:08.501Z,5568
2017-06-23T10:18:53.914Z,6308
2017-06-23T10:21:54.002Z,6892
2017-06-23T10:22:53.724Z,6692
2017-06-23T10:24:08.674Z,5980
2017-06-23T10:24:53.782Z,5812
2017-06-23T10:25:54.131Z,6552
2017-06-23T10:26:54.136Z,7048
2017-06-23T10:27:54.218Z,7672
2017-06-23T10:28:54.194Z,7588
2017-06-23T10:29:54.223Z,7672
2017-06-23T10:30:54.250Z,8184
2017-06-23T10:31:54.280Z,8604
2017-06-23T10:32:54.305Z,8304
2017-06-23T10:33:54.341Z,6592
2017-06-23T10:34:54.362Z,5688
2017-06-23T10:36:54.469Z,8052
2017-06-23T10:37:54.449Z,7636
2017-06-23T10:38:54.475Z,7180
2017-06-23T10:40:09.124Z,6832
2017-06-23T10:40:54.535Z,6364
2017-06-23T10:41:54.560Z,6564
2017-06-23T10:42:54.287Z,7088
2017-06-23T10:43:54.620Z,6932
2017-06-23T10:44:54.643Z,6444
2017-06-23T10:45:54.671Z,6180
2017-06-23T10:46:54.700Z,5848
2017-06-23T10:47:54.730Z,5416
2017-06-23T10:48:54.453Z,5176
2017-06-23T10:50:09.403Z,5032
2017-06-23T10:51:09.431Z,4836
2017-06-23T10:51:54.846Z,4896
2017-06-23T10:52:54.563Z,5064
2017-06-23T10:54:54.927Z,5280
2017-06-23T10:56:09.570Z,5136
2017-06-23T10:58:55.036Z,5204
2017-06-23T10:59:55.111Z,5592
2017-06-23T11:00:55.094Z,5604
2017-06-23T11:01:55.124Z,5520
2017-06-23T11:02:55.150Z,6412
2017-06-23T11:03:55.177Z,6120
2017-06-23T11:04:55.211Z,5368
2017-06-23T11:07:09.884Z,5116
2017-06-23T11:07:55.293Z,4904
2017-06-23T11:08:55.323Z,4984
2017-06-23T11:09:55.341Z,5004
2017-06-23T11:11:09.692Z,4936
2017-06-23T11:11:55.103Z,4900
2017-06-23T11:12:55.127Z,4816
2017-06-23T11:13:55.458Z,4740
2017-06-23T11:14:55.484Z,4532
2017-06-23T11:15:55.542Z,4388
2017-06-23T11:16:55.538Z,4516
2017-06-23T11:18:10.234Z,4492
2017-06-23T11:19:10.213Z,4732
2017-06-23T11:20:10.238Z,5248
2017-06-23T11:21:10.269Z,5580
2017-06-23T11:21:55.680Z,5744
2017-06-23T11:23:10.355Z,6276
2017-06-23T11:23:55.739Z,6352
2017-06-23T11:24:55.458Z,6412
2017-06-23T11:25:55.790Z,6396
2017-06-23T11:26:55.512Z,5988
2017-06-23T11:27:55.846Z,5624
2017-06-23T11:28:55.871Z,5420
2017-06-23T11:29:55.593Z,5356
2017-06-23T11:30:55.927Z,5512
2017-06-23T11:32:10.576Z,5912
2017-06-23T11:32:55.982Z,6428
2017-06-23T11:33:56.014Z,7144
2017-06-23T11:35:10.350Z,7512
2017-06-23T11:35:56.118Z,7828
2017-06-23T11:38:55.844Z,7896
2017-06-23T11:39:56.181Z,7840
2017-06-23T11:40:56.203Z,7348
2017-06-23T11:41:56.230Z,6548
2017-06-23T11:43:10.931Z,6344
2017-06-23T11:43:56.286Z,6416
2017-06-23T11:44:56.319Z,6392
2017-06-23T11:45:56.038Z,7288
2017-06-23T11:46:56.373Z,7420
2017-06-23T11:47:56.395Z,7052
2017-06-23T11:48:56.428Z,7324
2017-06-23T11:49:56.455Z,7868
2017-06-23T11:51:11.100Z,8176
2017-06-23T11:51:56.514Z,8392
2017-06-23T11:52:56.534Z,8508
2017-06-23T11:53:56.261Z,8424
2017-06-23T11:54:56.592Z,8916
2017-06-23T11:55:56.624Z,8580
2017-06-23T11:56:56.653Z,9296
2017-06-23T11:57:56.673Z,9400
2017-06-23T11:59:11.324Z,9508
2017-06-23T11:59:56.433Z,9156
2017-06-23T12:00:56.762Z,9216
2017-06-23T12:01:56.787Z,9104
2017-06-23T12:02:56.815Z,9448
2017-06-23T12:03:56.846Z,8904
2017-06-23T12:04:56.874Z,10528
2017-06-23T12:05:56.908Z,9684
2017-06-23T12:06:56.928Z,9800
2017-06-23T12:07:56.964Z,10372
2017-06-23T12:09:57.012Z,9820
2017-06-23T12:11:57.069Z,9780
2017-06-23T12:12:57.104Z,9056
2017-06-23T12:13:56.826Z,7912
2017-06-23T12:15:11.778Z,6724
2017-06-23T12:15:56.884Z,5804
2017-06-23T12:16:57.215Z,5084
2017-06-23T12:17:57.242Z,4448
2017-06-23T12:18:56.965Z,4028
2017-06-23T12:19:57.298Z,3884
2017-06-23T12:20:57.023Z,3800
2017-06-23T12:21:57.359Z,3628
2017-06-23T12:23:12.001Z,3308
2017-06-23T12:24:12.081Z,3028
2017-06-23T12:25:12.055Z,2972
2017-06-23T12:26:12.085Z,3212
2017-06-23T12:26:57.189Z,3356
2017-06-23T12:27:57.225Z,3352
2017-06-23T12:28:57.250Z,3188
2017-06-23T12:30:12.197Z,2992
2017-06-23T12:31:11.959Z,2912
2017-06-23T12:31:57.330Z,2892
2017-06-23T12:32:57.667Z,2824
2017-06-23T12:33:57.688Z,2784
2017-06-23T12:34:57.416Z,2836
2017-06-23T12:35:57.747Z,2892
2017-06-23T12:36:57.771Z,3004
2017-06-23T12:37:57.498Z,3164
2017-06-23T12:38:57.829Z,3364
2017-06-23T12:39:57.908Z,3256
2017-06-23T12:42:12.226Z,3008
2017-06-23T12:43:12.556Z,3144
2017-06-23T12:44:12.585Z,3292
2017-06-23T12:44:57.999Z,3396
2017-06-23T12:46:12.642Z,4200
2017-06-23T12:46:57.745Z,4544
2017-06-23T12:47:58.076Z,4860
2017-06-23T12:48:58.105Z,5196
2017-06-23T12:49:57.881Z,5616
2017-06-23T12:50:58.163Z,6500
2017-06-23T12:51:58.186Z,7688
2017-06-23T12:53:12.888Z,8224
2017-06-23T12:53:57.940Z,8512
2017-06-23T12:54:58.269Z,8420
2017-06-23T12:55:58.302Z,8928
2017-06-23T12:56:58.332Z,9048
2017-06-23T12:57:58.050Z,8776
2017-06-23T12:59:12.999Z,8792
2017-06-23T12:59:58.412Z,8712
2017-06-23T13:00:58.442Z,8896
2017-06-23T13:01:58.163Z,8524
2017-06-23T13:02:58.190Z,9024
2017-06-23T13:03:58.217Z,9260
2017-06-23T13:04:58.550Z,9504
2017-06-23T13:05:58.574Z,9824
2017-06-23T13:06:58.657Z,9452
2017-06-23T13:07:58.685Z,9488
2017-06-23T13:08:58.664Z,9736
2017-06-23T13:09:58.691Z,9800
2017-06-23T13:10:58.718Z,9800
2017-06-23T13:11:58.745Z,9980
2017-06-23T13:12:58.774Z,10536
2017-06-23T13:13:58.494Z,11544
2017-06-23T13:14:58.829Z,11584
2017-06-23T13:15:58.558Z,11432
2017-06-23T13:16:58.884Z,11472
2017-06-23T13:18:13.536Z,11416
2017-06-23T13:18:58.943Z,11172
2017-06-23T13:19:58.666Z,10944
2017-06-23T13:20:59.000Z,11116
2017-06-23T13:21:59.035Z,11384
2017-06-23T13:22:59.061Z,11572
2017-06-23T13:23:59.085Z,11556
2017-06-23T13:24:59.111Z,12320
2017-06-23T13:26:13.761Z,11168
2017-06-23T13:26:59.173Z,10908
2017-06-23T13:28:13.820Z,10336
2017-06-23T13:29:13.845Z,9784
2017-06-23T13:29:58.959Z,9220
2017-06-23T13:30:59.287Z,8852
2017-06-23T13:31:59.316Z,8764
2017-06-23T13:32:59.346Z,8700
2017-06-23T13:34:13.989Z,8660
2017-06-23T13:34:59.400Z,8908
2017-06-23T13:35:59.178Z,9680
2017-06-23T13:36:59.460Z,9124
2017-06-23T13:37:59.181Z,8760
2017-06-23T13:38:59.515Z,8336
2017-06-23T13:40:14.165Z,7956
2017-06-23T13:40:59.574Z,7820
2017-06-23T13:41:59.606Z,7628
2017-06-23T13:42:59.627Z,7456
2017-06-23T13:43:59.660Z,7184
2017-06-23T13:45:59.721Z,6472
2017-06-23T13:46:59.745Z,6324
2017-06-23T13:47:59.771Z,6252
2017-06-23T13:48:59.802Z,6408
2017-06-23T13:50:14.447Z,6580
2017-06-23T13:50:59.857Z,6700
2017-06-23T13:51:59.883Z,6820
2017-06-23T13:52:59.916Z,7068
2017-06-23T13:53:59.944Z,7252
2017-06-23T13:54:59.971Z,7172
2017-06-23T13:56:14.618Z,6952
2017-06-23T13:56:59.774Z,7072
2017-06-23T13:58:00.067Z,7176
2017-06-23T13:59:00.090Z,7560
2017-06-23T13:59:59.812Z,7852
2017-06-23T14:00:59.844Z,8072
2017-06-23T14:02:00.168Z,8400
2017-06-23T14:03:00.198Z,9020
2017-06-23T14:04:00.257Z,9392
2017-06-23T14:04:59.965Z,9400
2017-06-23T14:06:14.900Z,9092
2017-06-23T14:07:00.316Z,8920
2017-06-23T14:08:00.341Z,8712
2017-06-23T14:09:00.387Z,8432
2017-06-23T14:10:00.396Z,7968
2017-06-23T14:11:00.425Z,7700
2017-06-23T14:12:00.454Z,7376
2017-06-23T14:13:15.103Z,6856
2017-06-23T14:14:14.823Z,6256
2017-06-23T14:15:15.157Z,5684
2017-06-23T14:16:00.264Z,5432
2017-06-23T14:17:00.597Z,5272
2017-06-23T14:18:00.625Z,5020
2017-06-23T14:19:00.352Z,4588
2017-06-23T14:21:29.951Z,4020
2017-06-23T14:22:00.756Z,3908
2017-06-23T14:23:00.789Z,3808
2017-06-23T14:24:00.798Z,3860
2017-06-23T14:25:00.825Z,3920
2017-06-23T14:26:00.849Z,3988
2017-06-23T14:27:00.880Z,4120
2017-06-23T14:28:00.913Z,4208
2017-06-23T14:29:00.940Z,4312
2017-06-23T14:30:00.658Z,4372
2017-06-23T14:31:01.044Z,4104
2017-06-23T14:32:00.715Z,3720
2017-06-23T14:34:01.070Z,3180
2017-06-23T14:35:01.103Z,2972
2017-06-23T14:36:01.134Z,2884
2017-06-23T14:37:01.159Z,2876
2017-06-23T14:38:01.236Z,2776
2017-06-23T14:39:01.211Z,2624
2017-06-23T14:40:00.933Z,2504
2017-06-23T14:41:00.965Z,2432
2017-06-23T14:42:15.613Z,2600
2017-06-23T14:43:00.717Z,2684
2017-06-23T14:44:01.046Z,2924
2017-06-23T14:45:01.375Z,3176
2017-06-23T14:46:16.025Z,3480
2017-06-23T14:47:01.431Z,3788
2017-06-23T14:48:01.462Z,4436
2017-06-23T14:49:01.487Z,5624
2017-06-23T14:50:01.513Z,6940